sensor_id;sensor_type;location;lat;lon;timestamp;P1;durP1;ratioP1;P2;durP2;ratioP2
1577;SDS011;57623;53.608;10.004;2023-02-28T00:00:40;3.33;;;2.57;;
1577;SDS011;57623;53.608;10.004;2023-02-28T00:03:09;4.07;;;2.60;;
1577;SDS011;57623;53.608;10.004;2023-02-28T00:05:38;3.20;;;2.40;;
1577;SDS011;57623;53.608;10.004;2023-02-28T00:08:07;3.50;;;2.00;;
1577;SDS011;57623;53.608;10.004;2023-02-28T00:10:36;2.60;;;2.10;;
1577;SDS011;57623;53.608;10.004;2023-02-28T00:13:04;2.57;;;2.20;;
1577;SDS011;57623;53.608;10.004;2023-02-28T00:15:33;2.83;;;2.30;;
1577;SDS011;57623;53.608;10.004;2023-02-28T00:18:01;2.50;;;2.30;;
1577;SDS011;57623;53.608;10.004;2023-02-28T00:20:30;3.03;;;2.30;;
1577;SDS011;57623;53.608;10.004;2023-02-28T00:22:59;2.37;;;2.17;;
1577;SDS011;57623;53.608;10.004;2023-02-28T00:25:27;2.43;;;2.20;;
1577;SDS011;57623;53.608;10.004;2023-02-28T00:27:55;4.00;;;2.70;;
1577;SDS011;57623;53.608;10.004;2023-02-28T00:30:23;4.87;;;2.90;;
1577;SDS011;57623;53.608;10.004;2023-02-28T00:36:32;3.90;;;2.70;;
1577;SDS011;57623;53.608;10.004;2023-02-28T00:39:01;4.00;;;2.30;;
1577;SDS011;57623;53.608;10.004;2023-02-28T00:41:29;4.73;;;2.73;;
1577;SDS011;57623;53.608;10.004;2023-02-28T00:43:57;2.87;;;2.60;;
1577;SDS011;57623;53.608;10.004;2023-02-28T00:46:25;3.57;;;2.73;;
1577;SDS011;57623;53.608;10.004;2023-02-28T00:48:53;3.50;;;3.20;;
1577;SDS011;57623;53.608;10.004;2023-02-28T00:51:21;3.80;;;2.37;;
1577;SDS011;57623;53.608;10.004;2023-02-28T00:53:49;2.53;;;2.33;;
1577;SDS011;57623;53.608;10.004;2023-02-28T00:56:19;4.13;;;2.40;;
1577;SDS011;57623;53.608;10.004;2023-02-28T00:58:47;3.43;;;2.63;;
1577;SDS011;57623;53.608;10.004;2023-02-28T01:01:15;4.00;;;2.47;;
1577;SDS011;57623;53.608;10.004;2023-02-28T01:03:43;4.27;;;3.00;;
1577;SDS011;57623;53.608;10.004;2023-02-28T01:06:11;2.80;;;2.60;;
1577;SDS011;57623;53.608;10.004;2023-02-28T01:08:38;2.87;;;2.43;;
1577;SDS011;57623;53.608;10.004;2023-02-28T01:11:07;3.57;;;2.37;;
1577;SDS011;57623;53.608;10.004;2023-02-28T01:13:38;3.10;;;2.50;;
1577;SDS011;57623;53.608;10.004;2023-02-28T01:16:06;3.40;;;2.70;;
1577;SDS011;57623;53.608;10.004;2023-02-28T01:18:35;3.47;;;2.73;;
1577;SDS011;57623;53.608;10.004;2023-02-28T01:21:04;3.80;;;2.43;;
1577;SDS011;57623;53.608;10.004;2023-02-28T01:23:32;4.30;;;2.77;;
1577;SDS011;57623;53.608;10.004;2023-02-28T01:26:03;3.17;;;2.50;;
1577;SDS011;57623;53.608;10.004;2023-02-28T01:28:32;5.90;;;3.13;;
1577;SDS011;57623;53.608;10.004;2023-02-28T01:31:01;3.00;;;2.17;;
1577;SDS011;57623;53.608;10.004;2023-02-28T01:33:29;3.80;;;2.50;;
1577;SDS011;57623;53.608;10.004;2023-02-28T01:35:58;3.30;;;2.53;;
1577;SDS011;57623;53.608;10.004;2023-02-28T01:38:27;5.47;;;3.50;;
1577;SDS011;57623;53.608;10.004;2023-02-28T01:40:55;5.50;;;2.93;;
1577;SDS011;57623;53.608;10.004;2023-02-28T01:43:23;4.77;;;2.93;;
1577;SDS011;57623;53.608;10.004;2023-02-28T01:45:53;2.70;;;2.33;;
1577;SDS011;57623;53.608;10.004;2023-02-28T01:48:24;4.30;;;2.97;;
1577;SDS011;57623;53.608;10.004;2023-02-28T01:50:54;4.50;;;3.13;;
1577;SDS011;57623;53.608;10.004;2023-02-28T01:53:28;4.33;;;3.00;;
1577;SDS011;57623;53.608;10.004;2023-02-28T01:56:00;3.33;;;2.97;;
1577;SDS011;57623;53.608;10.004;2023-02-28T01:58:32;3.07;;;2.77;;
1577;SDS011;57623;53.608;10.004;2023-02-28T02:01:00;2.80;;;2.60;;
1577;SDS011;57623;53.608;10.004;2023-02-28T02:03:30;4.67;;;2.83;;
1577;SDS011;57623;53.608;10.004;2023-02-28T02:05:58;4.13;;;3.23;;
1577;SDS011;57623;53.608;10.004;2023-02-28T02:08:28;4.30;;;2.83;;
1577;SDS011;57623;53.608;10.004;2023-02-28T02:10:56;7.07;;;3.17;;
1577;SDS011;57623;53.608;10.004;2023-02-28T02:13:39;3.93;;;2.80;;
1577;SDS011;57623;53.608;10.004;2023-02-28T02:16:24;3.10;;;2.80;;
1577;SDS011;57623;53.608;10.004;2023-02-28T02:19:14;4.10;;;3.30;;
1577;SDS011;57623;53.608;10.004;2023-02-28T02:22:19;3.30;;;3.00;;
1577;SDS011;57623;53.608;10.004;2023-02-28T02:25:08;3.37;;;3.00;;
1577;SDS011;57623;53.608;10.004;2023-02-28T02:27:58;3.53;;;2.70;;
1577;SDS011;57623;53.608;10.004;2023-02-28T02:30:59;3.67;;;2.70;;
1577;SDS011;57623;53.608;10.004;2023-02-28T02:37:00;4.70;;;3.00;;
1577;SDS011;57623;53.608;10.004;2023-02-28T02:39:36;2.80;;;2.60;;
1577;SDS011;57623;53.608;10.004;2023-02-28T02:42:14;4.00;;;2.80;;
1577;SDS011;57623;53.608;10.004;2023-02-28T02:44:49;4.33;;;3.20;;
1577;SDS011;57623;53.608;10.004;2023-02-28T02:47:23;3.60;;;2.73;;
1577;SDS011;57623;53.608;10.004;2023-02-28T02:49:55;3.07;;;2.87;;
1577;SDS011;57623;53.608;10.004;2023-02-28T02:52:27;4.60;;;3.10;;
1577;SDS011;57623;53.608;10.004;2023-02-28T02:55:00;5.03;;;3.60;;
1577;SDS011;57623;53.608;10.004;2023-02-28T02:57:30;3.70;;;3.30;;
1577;SDS011;57623;53.608;10.004;2023-02-28T03:00:01;3.47;;;3.17;;
1577;SDS011;57623;53.608;10.004;2023-02-28T03:02:34;4.80;;;3.33;;
1577;SDS011;57623;53.608;10.004;2023-02-28T03:05:06;4.10;;;3.70;;
1577;SDS011;57623;53.608;10.004;2023-02-28T03:07:41;4.47;;;3.70;;
1577;SDS011;57623;53.608;10.004;2023-02-28T03:13:00;5.23;;;3.67;;
1577;SDS011;57623;53.608;10.004;2023-02-28T03:15:49;6.30;;;3.50;;
1577;SDS011;57623;53.608;10.004;2023-02-28T03:18:27;6.43;;;3.70;;
1577;SDS011;57623;53.608;10.004;2023-02-28T03:21:06;4.13;;;3.73;;
1577;SDS011;57623;53.608;10.004;2023-02-28T03:23:42;3.60;;;3.30;;
1577;SDS011;57623;53.608;10.004;2023-02-28T03:26:17;4.70;;;4.13;;
1577;SDS011;57623;53.608;10.004;2023-02-28T03:28:51;5.17;;;3.83;;
1577;SDS011;57623;53.608;10.004;2023-02-28T03:31:25;3.73;;;3.43;;
1577;SDS011;57623;53.608;10.004;2023-02-28T03:33:59;4.50;;;4.10;;
1577;SDS011;57623;53.608;10.004;2023-02-28T03:36:33;5.27;;;4.23;;
1577;SDS011;57623;53.608;10.004;2023-02-28T03:39:11;4.63;;;4.23;;
1577;SDS011;57623;53.608;10.004;2023-02-28T03:41:44;4.47;;;4.07;;
1577;SDS011;57623;53.608;10.004;2023-02-28T03:44:17;5.77;;;4.30;;
1577;SDS011;57623;53.608;10.004;2023-02-28T03:46:52;5.17;;;4.40;;
1577;SDS011;57623;53.608;10.004;2023-02-28T03:49:27;4.77;;;3.63;;
1577;SDS011;57623;53.608;10.004;2023-02-28T03:52:00;4.47;;;4.07;;
1577;SDS011;57623;53.608;10.004;2023-02-28T03:54:31;5.23;;;4.30;;
1577;SDS011;57623;53.608;10.004;2023-02-28T03:57:05;5.47;;;4.10;;
1577;SDS011;57623;53.608;10.004;2023-02-28T03:59:39;5.23;;;4.63;;
1577;SDS011;57623;53.608;10.004;2023-02-28T04:02:10;4.30;;;3.90;;
1577;SDS011;57623;53.608;10.004;2023-02-28T04:04:38;5.10;;;4.13;;
1577;SDS011;57623;53.608;10.004;2023-02-28T04:07:16;4.93;;;4.43;;
1577;SDS011;57623;53.608;10.004;2023-02-28T04:09:44;5.93;;;5.30;;
1577;SDS011;57623;53.608;10.004;2023-02-28T04:12:12;6.23;;;4.53;;
1577;SDS011;57623;53.608;10.004;2023-02-28T04:14:40;5.37;;;4.40;;
1577;SDS011;57623;53.608;10.004;2023-02-28T04:17:08;6.10;;;4.73;;
1577;SDS011;57623;53.608;10.004;2023-02-28T04:19:36;7.37;;;4.77;;
1577;SDS011;57623;53.608;10.004;2023-02-28T04:22:04;6.17;;;5.20;;
1577;SDS011;57623;53.608;10.004;2023-02-28T04:24:33;6.00;;;5.03;;
1577;SDS011;57623;53.608;10.004;2023-02-28T04:27:03;5.10;;;4.70;;
1577;SDS011;57623;53.608;10.004;2023-02-28T04:29:31;6.07;;;4.97;;
1577;SDS011;57623;53.608;10.004;2023-02-28T04:32:00;5.00;;;4.47;;
1577;SDS011;57623;53.608;10.004;2023-02-28T04:34:29;6.73;;;4.80;;
1577;SDS011;57623;53.608;10.004;2023-02-28T04:36:58;5.40;;;4.90;;
1577;SDS011;57623;53.608;10.004;2023-02-28T04:39:43;5.70;;;5.10;;
1577;SDS011;57623;53.608;10.004;2023-02-28T04:42:11;5.80;;;5.13;;
1577;SDS011;57623;53.608;10.004;2023-02-28T04:44:40;7.77;;;5.37;;
1577;SDS011;57623;53.608;10.004;2023-02-28T04:47:08;6.73;;;5.40;;
1577;SDS011;57623;53.608;10.004;2023-02-28T04:49:36;6.17;;;5.40;;
1577;SDS011;57623;53.608;10.004;2023-02-28T04:52:04;6.30;;;5.70;;
1577;SDS011;57623;53.608;10.004;2023-02-28T04:54:33;6.07;;;5.47;;
1577;SDS011;57623;53.608;10.004;2023-02-28T04:57:03;8.17;;;5.77;;
1577;SDS011;57623;53.608;10.004;2023-02-28T04:59:30;6.30;;;5.67;;
1577;SDS011;57623;53.608;10.004;2023-02-28T05:01:59;7.37;;;5.83;;
1577;SDS011;57623;53.608;10.004;2023-02-28T05:04:30;6.40;;;5.60;;
1577;SDS011;57623;53.608;10.004;2023-02-28T05:07:00;7.50;;;6.00;;
1577;SDS011;57623;53.608;10.004;2023-02-28T05:09:28;6.60;;;5.70;;
1577;SDS011;57623;53.608;10.004;2023-02-28T05:11:56;6.53;;;5.60;;
1577;SDS011;57623;53.608;10.004;2023-02-28T05:14:25;6.87;;;6.10;;
1577;SDS011;57623;53.608;10.004;2023-02-28T05:16:53;6.13;;;5.63;;
1577;SDS011;57623;53.608;10.004;2023-02-28T05:19:21;6.20;;;5.60;;
1577;SDS011;57623;53.608;10.004;2023-02-28T05:21:49;6.17;;;5.57;;
1577;SDS011;57623;53.608;10.004;2023-02-28T05:24:19;5.73;;;5.10;;
1577;SDS011;57623;53.608;10.004;2023-02-28T05:26:49;7.07;;;5.60;;
1577;SDS011;57623;53.608;10.004;2023-02-28T05:29:19;6.27;;;5.67;;
1577;SDS011;57623;53.608;10.004;2023-02-28T05:31:48;6.40;;;5.60;;
1577;SDS011;57623;53.608;10.004;2023-02-28T05:34:16;6.33;;;5.73;;
1577;SDS011;57623;53.608;10.004;2023-02-28T05:36:44;8.70;;;6.70;;
1577;SDS011;57623;53.608;10.004;2023-02-28T05:39:12;7.17;;;6.37;;
1577;SDS011;57623;53.608;10.004;2023-02-28T05:41:40;7.60;;;6.80;;
1577;SDS011;57623;53.608;10.004;2023-02-28T05:44:09;7.37;;;6.67;;
1577;SDS011;57623;53.608;10.004;2023-02-28T05:46:38;6.73;;;6.13;;
1577;SDS011;57623;53.608;10.004;2023-02-28T05:49:07;7.10;;;6.27;;
1577;SDS011;57623;53.608;10.004;2023-02-28T05:51:35;7.57;;;6.50;;
1577;SDS011;57623;53.608;10.004;2023-02-28T05:54:06;7.17;;;6.47;;
1577;SDS011;57623;53.608;10.004;2023-02-28T05:56:34;7.20;;;6.50;;
1577;SDS011;57623;53.608;10.004;2023-02-28T05:59:05;7.10;;;6.20;;
1577;SDS011;57623;53.608;10.004;2023-02-28T06:01:34;6.77;;;6.10;;
1577;SDS011;57623;53.608;10.004;2023-02-28T06:04:05;8.90;;;6.80;;
1577;SDS011;57623;53.608;10.004;2023-02-28T06:06:46;8.53;;;6.27;;
1577;SDS011;57623;53.608;10.004;2023-02-28T06:09:14;7.50;;;6.43;;
1577;SDS011;57623;53.608;10.004;2023-02-28T06:11:43;6.90;;;6.30;;
1577;SDS011;57623;53.608;10.004;2023-02-28T06:14:12;7.30;;;6.60;;
1577;SDS011;57623;53.608;10.004;2023-02-28T06:16:42;8.57;;;7.10;;
1577;SDS011;57623;53.608;10.004;2023-02-28T06:19:11;8.70;;;7.10;;
1577;SDS011;57623;53.608;10.004;2023-02-28T06:21:39;6.90;;;6.20;;
1577;SDS011;57623;53.608;10.004;2023-02-28T06:24:09;6.90;;;6.13;;
1577;SDS011;57623;53.608;10.004;2023-02-28T06:26:37;8.43;;;7.50;;
1577;SDS011;57623;53.608;10.004;2023-02-28T06:29:05;8.80;;;6.83;;
1577;SDS011;57623;53.608;10.004;2023-02-28T06:31:33;8.13;;;7.33;;
1577;SDS011;57623;53.608;10.004;2023-02-28T06:34:01;9.43;;;7.93;;
1577;SDS011;57623;53.608;10.004;2023-02-28T06:36:29;8.37;;;7.00;;
1577;SDS011;57623;53.608;10.004;2023-02-28T06:38:57;8.60;;;7.40;;
1577;SDS011;57623;53.608;10.004;2023-02-28T06:41:26;9.93;;;7.53;;
1577;SDS011;57623;53.608;10.004;2023-02-28T06:43:59;10.67;;;7.80;;
1577;SDS011;57623;53.608;10.004;2023-02-28T06:46:27;10.70;;;8.07;;
1577;SDS011;57623;53.608;10.004;2023-02-28T06:48:55;9.20;;;8.30;;
1577;SDS011;57623;53.608;10.004;2023-02-28T06:51:23;9.27;;;8.37;;
1577;SDS011;57623;53.608;10.004;2023-02-28T06:53:51;10.00;;;8.30;;
1577;SDS011;57623;53.608;10.004;2023-02-28T06:56:19;10.50;;;8.47;;
1577;SDS011;57623;53.608;10.004;2023-02-28T06:58:49;8.77;;;7.90;;
1577;SDS011;57623;53.608;10.004;2023-02-28T07:01:19;9.90;;;8.90;;
1577;SDS011;57623;53.608;10.004;2023-02-28T07:03:49;10.90;;;8.50;;
1577;SDS011;57623;53.608;10.004;2023-02-28T07:06:18;11.87;;;8.77;;
1577;SDS011;57623;53.608;10.004;2023-02-28T07:08:48;9.83;;;8.83;;
1577;SDS011;57623;53.608;10.004;2023-02-28T07:11:16;10.10;;;9.10;;
1577;SDS011;57623;53.608;10.004;2023-02-28T07:13:44;9.80;;;8.80;;
1577;SDS011;57623;53.608;10.004;2023-02-28T07:16:15;9.70;;;8.70;;
1577;SDS011;57623;53.608;10.004;2023-02-28T07:18:43;9.57;;;8.63;;
1577;SDS011;57623;53.608;10.004;2023-02-28T07:21:11;10.73;;;9.10;;
1577;SDS011;57623;53.608;10.004;2023-02-28T07:23:39;11.93;;;9.20;;
1577;SDS011;57623;53.608;10.004;2023-02-28T07:26:09;9.70;;;8.80;;
1577;SDS011;57623;53.608;10.004;2023-02-28T07:28:41;11.70;;;9.40;;
1577;SDS011;57623;53.608;10.004;2023-02-28T07:31:09;11.40;;;9.70;;
1577;SDS011;57623;53.608;10.004;2023-02-28T07:33:41;11.00;;;9.90;;
1577;SDS011;57623;53.608;10.004;2023-02-28T07:36:10;10.63;;;9.20;;
1577;SDS011;57623;53.608;10.004;2023-02-28T07:38:41;11.10;;;9.33;;
1577;SDS011;57623;53.608;10.004;2023-02-28T07:41:13;13.73;;;9.83;;
1577;SDS011;57623;53.608;10.004;2023-02-28T07:43:42;10.13;;;9.13;;
1577;SDS011;57623;53.608;10.004;2023-02-28T07:46:11;15.43;;;10.10;;
1577;SDS011;57623;53.608;10.004;2023-02-28T07:48:43;13.70;;;10.03;;
1577;SDS011;57623;53.608;10.004;2023-02-28T07:51:11;12.33;;;10.37;;
1577;SDS011;57623;53.608;10.004;2023-02-28T07:53:39;11.70;;;9.23;;
1577;SDS011;57623;53.608;10.004;2023-02-28T07:56:07;11.17;;;9.57;;
1577;SDS011;57623;53.608;10.004;2023-02-28T07:58:36;12.80;;;10.27;;
1577;SDS011;57623;53.608;10.004;2023-02-28T08:01:05;12.47;;;9.60;;
1577;SDS011;57623;53.608;10.004;2023-02-28T08:03:33;10.90;;;9.40;;
1577;SDS011;57623;53.608;10.004;2023-02-28T08:06:04;11.87;;;9.40;;
1577;SDS011;57623;53.608;10.004;2023-02-28T08:08:33;12.97;;;9.03;;
1577;SDS011;57623;53.608;10.004;2023-02-28T08:11:02;12.00;;;10.17;;
1577;SDS011;57623;53.608;10.004;2023-02-28T08:13:30;12.63;;;9.73;;
1577;SDS011;57623;53.608;10.004;2023-02-28T08:16:00;11.90;;;10.03;;
1577;SDS011;57623;53.608;10.004;2023-02-28T08:18:29;13.73;;;10.07;;
1577;SDS011;57623;53.608;10.004;2023-02-28T08:20:57;12.70;;;11.27;;
1577;SDS011;57623;53.608;10.004;2023-02-28T08:23:27;11.63;;;9.20;;
1577;SDS011;57623;53.608;10.004;2023-02-28T08:25:55;10.37;;;8.60;;
1577;SDS011;57623;53.608;10.004;2023-02-28T08:28:23;10.00;;;8.77;;
1577;SDS011;57623;53.608;10.004;2023-02-28T08:30:52;12.80;;;8.67;;
1577;SDS011;57623;53.608;10.004;2023-02-28T08:33:21;9.17;;;8.17;;
1577;SDS011;57623;53.608;10.004;2023-02-28T08:35:51;8.97;;;7.77;;
1577;SDS011;57623;53.608;10.004;2023-02-28T08:38:21;8.07;;;7.30;;
1577;SDS011;57623;53.608;10.004;2023-02-28T08:40:56;7.37;;;6.50;;
1577;SDS011;57623;53.608;10.004;2023-02-28T08:43:24;10.03;;;7.07;;
1577;SDS011;57623;53.608;10.004;2023-02-28T08:45:52;7.00;;;6.30;;
1577;SDS011;57623;53.608;10.004;2023-02-28T08:48:23;6.00;;;5.40;;
1577;SDS011;57623;53.608;10.004;2023-02-28T08:50:54;5.03;;;4.53;;
1577;SDS011;57623;53.608;10.004;2023-02-28T08:53:33;5.47;;;4.23;;
1577;SDS011;57623;53.608;10.004;2023-02-28T08:56:03;4.17;;;3.83;;
1577;SDS011;57623;53.608;10.004;2023-02-28T08:58:33;4.60;;;3.97;;
1577;SDS011;57623;53.608;10.004;2023-02-28T09:01:06;4.37;;;3.60;;
1577;SDS011;57623;53.608;10.004;2023-02-28T09:03:38;5.40;;;3.20;;
1577;SDS011;57623;53.608;10.004;2023-02-28T09:06:08;4.50;;;3.87;;
1577;SDS011;57623;53.608;10.004;2023-02-28T09:08:38;3.30;;;2.97;;
1577;SDS011;57623;53.608;10.004;2023-02-28T09:11:07;3.87;;;2.70;;
1577;SDS011;57623;53.608;10.004;2023-02-28T09:13:36;2.70;;;2.50;;
1577;SDS011;57623;53.608;10.004;2023-02-28T09:16:05;3.67;;;2.20;;
1577;SDS011;57623;53.608;10.004;2023-02-28T09:18:35;2.93;;;2.43;;
1577;SDS011;57623;53.608;10.004;2023-02-28T09:21:04;2.60;;;2.40;;
1577;SDS011;57623;53.608;10.004;2023-02-28T09:23:33;7.50;;;2.47;;
1577;SDS011;57623;53.608;10.004;2023-02-28T09:26:00;3.27;;;2.20;;
1577;SDS011;57623;53.608;10.004;2023-02-28T09:28:30;2.20;;;2.00;;
1577;SDS011;57623;53.608;10.004;2023-02-28T09:30:58;2.33;;;2.13;;
1577;SDS011;57623;53.608;10.004;2023-02-28T09:33:26;2.27;;;2.10;;
1577;SDS011;57623;53.608;10.004;2023-02-28T09:35:57;2.33;;;2.13;;
1577;SDS011;57623;53.608;10.004;2023-02-28T09:38:27;2.27;;;2.07;;
1577;SDS011;57623;53.608;10.004;2023-02-28T09:40:57;1.70;;;1.60;;
1577;SDS011;57623;53.608;10.004;2023-02-28T09:43:27;2.57;;;2.10;;
1577;SDS011;57623;53.608;10.004;2023-02-28T09:46:02;2.00;;;1.90;;
1577;SDS011;57623;53.608;10.004;2023-02-28T09:48:38;2.83;;;2.40;;
1577;SDS011;57623;53.608;10.004;2023-02-28T09:51:12;3.50;;;2.20;;
1577;SDS011;57623;53.608;10.004;2023-02-28T09:53:48;3.63;;;2.30;;
1577;SDS011;57623;53.608;10.004;2023-02-28T09:56:27;3.40;;;2.50;;
1577;SDS011;57623;53.608;10.004;2023-02-28T09:59:02;1.70;;;1.60;;
1577;SDS011;57623;53.608;10.004;2023-02-28T10:01:34;2.20;;;1.97;;
1577;SDS011;57623;53.608;10.004;2023-02-28T10:04:08;2.60;;;1.70;;
1577;SDS011;57623;53.608;10.004;2023-02-28T10:06:44;4.90;;;2.60;;
1577;SDS011;57623;53.608;10.004;2023-02-28T10:09:17;3.70;;;2.30;;
1577;SDS011;57623;53.608;10.004;2023-02-28T10:11:48;2.50;;;2.30;;
1577;SDS011;57623;53.608;10.004;2023-02-28T10:14:24;2.60;;;2.13;;
1577;SDS011;57623;53.608;10.004;2023-02-28T10:16:54;2.50;;;2.10;;
1577;SDS011;57623;53.608;10.004;2023-02-28T10:19:26;2.30;;;1.90;;
1577;SDS011;57623;53.608;10.004;2023-02-28T10:22:00;2.43;;;2.23;;
1577;SDS011;57623;53.608;10.004;2023-02-28T10:24:32;3.60;;;3.13;;
1577;SDS011;57623;53.608;10.004;2023-02-28T10:27:12;1.83;;;1.73;;
1577;SDS011;57623;53.608;10.004;2023-02-28T10:29:43;2.10;;;1.90;;
1577;SDS011;57623;53.608;10.004;2023-02-28T10:32:14;3.03;;;2.17;;
1577;SDS011;57623;53.608;10.004;2023-02-28T10:34:44;2.70;;;1.70;;
1577;SDS011;57623;53.608;10.004;2023-02-28T10:37:18;2.27;;;2.07;;
1577;SDS011;57623;53.608;10.004;2023-02-28T10:39:47;1.90;;;1.80;;
1577;SDS011;57623;53.608;10.004;2023-02-28T10:42:19;2.70;;;2.40;;
1577;SDS011;57623;53.608;10.004;2023-02-28T10:45:11;2.67;;;2.47;;
1577;SDS011;57623;53.608;10.004;2023-02-28T10:47:51;2.00;;;1.90;;
1577;SDS011;57623;53.608;10.004;2023-02-28T10:50:29;4.10;;;2.97;;
1577;SDS011;57623;53.608;10.004;2023-02-28T10:53:22;2.30;;;2.10;;
1577;SDS011;57623;53.608;10.004;2023-02-28T10:56:14;2.07;;;1.87;;
1577;SDS011;57623;53.608;10.004;2023-02-28T10:58:48;3.00;;;1.80;;
1577;SDS011;57623;53.608;10.004;2023-02-28T11:01:20;2.17;;;2.03;;
1577;SDS011;57623;53.608;10.004;2023-02-28T11:03:49;2.80;;;2.27;;
1577;SDS011;57623;53.608;10.004;2023-02-28T11:06:19;1.97;;;1.87;;
1577;SDS011;57623;53.608;10.004;2023-02-28T11:08:50;2.23;;;2.03;;
1577;SDS011;57623;53.608;10.004;2023-02-28T11:11:20;2.90;;;2.10;;
1577;SDS011;57623;53.608;10.004;2023-02-28T11:13:51;2.43;;;2.23;;
1577;SDS011;57623;53.608;10.004;2023-02-28T11:16:31;2.53;;;2.10;;
1577;SDS011;57623;53.608;10.004;2023-02-28T11:19:01;2.67;;;2.30;;
1577;SDS011;57623;53.608;10.004;2023-02-28T11:21:31;2.23;;;2.03;;
1577;SDS011;57623;53.608;10.004;2023-02-28T11:24:07;2.37;;;2.17;;
1577;SDS011;57623;53.608;10.004;2023-02-28T11:26:46;5.60;;;2.40;;
1577;SDS011;57623;53.608;10.004;2023-02-28T11:29:17;2.40;;;2.20;;
1577;SDS011;57623;53.608;10.004;2023-02-28T11:32:02;3.40;;;2.60;;
1577;SDS011;57623;53.608;10.004;2023-02-28T11:34:40;2.00;;;1.90;;
1577;SDS011;57623;53.608;10.004;2023-02-28T11:37:10;2.73;;;2.30;;
1577;SDS011;57623;53.608;10.004;2023-02-28T11:39:40;4.17;;;2.53;;
1577;SDS011;57623;53.608;10.004;2023-02-28T11:42:12;3.47;;;2.30;;
1577;SDS011;57623;53.608;10.004;2023-02-28T11:44:58;1.80;;;1.70;;
1577;SDS011;57623;53.608;10.004;2023-02-28T11:47:42;2.23;;;2.03;;
1577;SDS011;57623;53.608;10.004;2023-02-28T11:50:22;2.77;;;2.30;;
1577;SDS011;57623;53.608;10.004;2023-02-28T11:53:05;2.40;;;2.20;;
1577;SDS011;57623;53.608;10.004;2023-02-28T11:55:42;2.50;;;2.30;;
1577;SDS011;57623;53.608;10.004;2023-02-28T11:58:22;2.57;;;2.20;;
1577;SDS011;57623;53.608;10.004;2023-02-28T12:04:14;4.50;;;2.40;;
1577;SDS011;57623;53.608;10.004;2023-02-28T12:06:52;4.30;;;3.23;;
1577;SDS011;57623;53.608;10.004;2023-02-28T12:12:22;2.10;;;2.00;;
1577;SDS011;57623;53.608;10.004;2023-02-28T12:18:02;2.50;;;2.30;;
1577;SDS011;57623;53.608;10.004;2023-02-28T12:20:43;2.53;;;2.33;;
1577;SDS011;57623;53.608;10.004;2023-02-28T12:23:21;5.13;;;2.40;;
1577;SDS011;57623;53.608;10.004;2023-02-28T12:26:07;2.50;;;2.30;;
1577;SDS011;57623;53.608;10.004;2023-02-28T12:28:42;2.33;;;2.13;;
1577;SDS011;57623;53.608;10.004;2023-02-28T12:31:14;2.73;;;2.40;;
1577;SDS011;57623;53.608;10.004;2023-02-28T12:33:50;3.00;;;2.00;;
1577;SDS011;57623;53.608;10.004;2023-02-28T12:36:22;3.53;;;2.40;;
1577;SDS011;57623;53.608;10.004;2023-02-28T12:38:53;2.33;;;2.20;;
1577;SDS011;57623;53.608;10.004;2023-02-28T12:41:26;2.00;;;1.90;;
1577;SDS011;57623;53.608;10.004;2023-02-28T12:44:00;2.00;;;1.90;;
1577;SDS011;57623;53.608;10.004;2023-02-28T12:46:34;2.40;;;2.20;;
1577;SDS011;57623;53.608;10.004;2023-02-28T12:49:09;2.20;;;2.10;;
1577;SDS011;57623;53.608;10.004;2023-02-28T12:51:42;2.20;;;1.93;;
1577;SDS011;57623;53.608;10.004;2023-02-28T12:54:13;2.35;;;2.17;;
1577;SDS011;57623;53.608;10.004;2023-02-28T12:56:47;2.17;;;2.08;;
1577;SDS011;57623;53.608;10.004;2023-02-28T12:59:23;1.80;;;1.70;;
1577;SDS011;57623;53.608;10.004;2023-02-28T13:01:57;3.47;;;2.20;;
1577;SDS011;57623;53.608;10.004;2023-02-28T13:07:51;3.35;;;1.98;;
1577;SDS011;57623;53.608;10.004;2023-02-28T13:10:39;3.38;;;2.30;;
1577;SDS011;57623;53.608;10.004;2023-02-28T13:13:13;2.50;;;2.30;;
1577;SDS011;57623;53.608;10.004;2023-02-28T13:15:56;1.95;;;1.80;;
1577;SDS011;57623;53.608;10.004;2023-02-28T13:18:33;2.17;;;2.08;;
1577;SDS011;57623;53.608;10.004;2023-02-28T13:21:06;2.15;;;2.05;;
1577;SDS011;57623;53.608;10.004;2023-02-28T13:23:41;2.20;;;2.00;;
1577;SDS011;57623;53.608;10.004;2023-02-28T13:29:36;2.67;;;2.47;;
1577;SDS011;57623;53.608;10.004;2023-02-28T13:35:12;2.20;;;2.10;;
1577;SDS011;57623;53.608;10.004;2023-02-28T13:44:23;4.72;;;2.40;;
1577;SDS011;57623;53.608;10.004;2023-02-28T13:49:51;2.58;;;2.40;;
1577;SDS011;57623;53.608;10.004;2023-02-28T13:52:20;2.87;;;2.67;;
1577;SDS011;57623;53.608;10.004;2023-02-28T13:57:57;2.80;;;2.60;;
1577;SDS011;57623;53.608;10.004;2023-02-28T14:00:40;3.10;;;2.70;;
1577;SDS011;57623;53.608;10.004;2023-02-28T14:03:25;2.47;;;2.27;;
1577;SDS011;57623;53.608;10.004;2023-02-28T14:06:17;5.27;;;2.90;;
1577;SDS011;57623;53.608;10.004;2023-02-28T14:08:54;2.60;;;2.40;;
1577;SDS011;57623;53.608;10.004;2023-02-28T14:11:26;3.47;;;3.27;;
1577;SDS011;57623;53.608;10.004;2023-02-28T14:13:57;3.67;;;3.37;;
1577;SDS011;57623;53.608;10.004;2023-02-28T14:16:28;3.43;;;3.10;;
1577;SDS011;57623;53.608;10.004;2023-02-28T14:19:05;2.93;;;2.73;;
1577;SDS011;57623;53.608;10.004;2023-02-28T14:21:43;2.97;;;2.77;;
1577;SDS011;57623;53.608;10.004;2023-02-28T14:24:42;3.53;;;3.23;;
1577;SDS011;57623;53.608;10.004;2023-02-28T14:27:40;3.30;;;3.00;;
1577;SDS011;57623;53.608;10.004;2023-02-28T14:30:29;4.43;;;2.73;;
1577;SDS011;57623;53.608;10.004;2023-02-28T14:33:42;3.73;;;2.80;;
1577;SDS011;57623;53.608;10.004;2023-02-28T14:36:22;4.27;;;3.13;;
1577;SDS011;57623;53.608;10.004;2023-02-28T14:38:55;3.83;;;3.03;;
1577;SDS011;57623;53.608;10.004;2023-02-28T14:41:28;3.50;;;3.20;;
1577;SDS011;57623;53.608;10.004;2023-02-28T14:43:58;4.90;;;3.67;;
1577;SDS011;57623;53.608;10.004;2023-02-28T14:46:28;3.40;;;3.10;;
1577;SDS011;57623;53.608;10.004;2023-02-28T14:49:04;5.40;;;3.43;;
1577;SDS011;57623;53.608;10.004;2023-02-28T14:51:33;3.40;;;3.10;;
1577;SDS011;57623;53.608;10.004;2023-02-28T14:54:02;3.10;;;2.80;;
1577;SDS011;57623;53.608;10.004;2023-02-28T14:56:33;5.57;;;3.30;;
1577;SDS011;57623;53.608;10.004;2023-02-28T14:59:04;3.07;;;2.77;;
1577;SDS011;57623;53.608;10.004;2023-02-28T15:01:51;2.80;;;2.53;;
1577;SDS011;57623;53.608;10.004;2023-02-28T15:04:22;3.40;;;2.53;;
1577;SDS011;57623;53.608;10.004;2023-02-28T15:07:07;3.40;;;3.00;;
1577;SDS011;57623;53.608;10.004;2023-02-28T15:09:35;4.20;;;3.20;;
1577;SDS011;57623;53.608;10.004;2023-02-28T15:12:03;2.53;;;2.33;;
1577;SDS011;57623;53.608;10.004;2023-02-28T15:14:31;3.33;;;2.57;;
1577;SDS011;57623;53.608;10.004;2023-02-28T15:17:02;3.53;;;2.60;;
1577;SDS011;57623;53.608;10.004;2023-02-28T15:19:37;2.80;;;2.40;;
1577;SDS011;57623;53.608;10.004;2023-02-28T15:22:11;2.80;;;2.60;;
1577;SDS011;57623;53.608;10.004;2023-02-28T15:24:44;3.20;;;2.90;;
1577;SDS011;57623;53.608;10.004;2023-02-28T15:27:15;2.60;;;2.40;;
1577;SDS011;57623;53.608;10.004;2023-02-28T15:29:48;3.77;;;3.10;;
1577;SDS011;57623;53.608;10.004;2023-02-28T15:32:21;4.93;;;3.10;;
1577;SDS011;57623;53.608;10.004;2023-02-28T15:34:54;4.77;;;2.77;;
1577;SDS011;57623;53.608;10.004;2023-02-28T15:37:25;4.40;;;2.83;;
1577;SDS011;57623;53.608;10.004;2023-02-28T15:39:57;3.93;;;2.77;;
1577;SDS011;57623;53.608;10.004;2023-02-28T15:42:31;3.80;;;3.50;;
1577;SDS011;57623;53.608;10.004;2023-02-28T15:44:59;4.10;;;2.53;;
1577;SDS011;57623;53.608;10.004;2023-02-28T15:47:27;3.30;;;2.93;;
1577;SDS011;57623;53.608;10.004;2023-02-28T15:49:59;4.00;;;3.53;;
1577;SDS011;57623;53.608;10.004;2023-02-28T15:52:29;4.00;;;3.70;;
1577;SDS011;57623;53.608;10.004;2023-02-28T15:55:08;3.30;;;3.00;;
1577;SDS011;57623;53.608;10.004;2023-02-28T15:57:38;3.90;;;2.93;;